Latest Coastal Weather Observations for Lake Macquarie - Cooranbong

IDN60701

Issued at 9:35 pm EDT Thursday 23 October 2014 (issued every 10 minutes, with the page automatically refreshed every 10 minutes)

About coastal observations | Map of coastal stations | Coastal observations for NSW | Marine services | Other Formats
Station Details ID: 061412 Name: LAKE MACQUARIE AWS Lat: -33.09 Lon: 151.46 Height: 6.0 m
Data from the previous 72 hours. | See also: Recent months at Lake Macquarie - Cooranbong
Date/Time
EDT
Temp

°C
Wind Pressure Rain
since 9am
mm
Weather Cloud Vis
km
Sea
Height
m
Swell
Dir
 
Speed
knots
Gust
knots
hPa Trend Height
m
Period
s
Dir
23/09:30pm 16.9 SSW 0 0 1019.6 - 0.0 - - - - - - -
23/09:00pm 18.0 CALM 0 0 1019.4 - 0.0 - - - - - - -
23/08:30pm 18.4 CALM 0 0 1019.0 - 0.0 - - - - - - -
23/08:00pm 19.3 CALM 0 0 1018.8 - 0.0 - - - - - - -
23/07:30pm 19.7 CALM 0 0 1018.3 - 0.0 - - - - - - -
23/07:00pm 20.6 CALM 0 0 1017.8 - 0.0 - - - - - - -
23/06:30pm 22.0 SE 1 2 1017.4 - 0.0 - - - - - - -
23/06:00pm 22.4 ESE 1 3 1017.0 - 0.0 - - - - - - -
23/05:30pm 22.9 ENE 2 5 1016.6 - 0.0 - - - - - - -
23/05:00pm 24.3 E 3 7 1016.1 - 0.0 - - - - - - -
23/04:30pm 25.3 E 5 8 1015.9 - 0.0 - - - - - - -
23/04:00pm 26.7 ENE 5 8 1015.4 - 0.0 - - - - - - -
23/03:30pm 28.6 E 5 8 1015.4 - 0.0 - - - - - - -
23/03:00pm 28.7 E 6 9 1015.3 - 0.0 - - - - - - -
23/02:30pm 29.6 E 6 10 1015.4 - 0.0 - - - - - - -
23/02:00pm 30.1 E 5 8 1015.8 - 0.0 - - - - - - -
23/01:30pm 30.1 SSW 2 6 1016.1 - 0.0 - - - - - - -
23/01:00pm 29.9 SW 2 6 1016.5 - 0.0 - - - - - - -
23/12:30pm 28.9 N 2 3 1016.7 - 0.0 - - - - - - -
23/12:00pm 27.7 WNW 2 4 1017.1 - 0.0 - - - - - - -
23/11:30am 26.7 CALM 0 0 1017.5 - 0.0 - - - - - - -
23/11:00am 25.6 CALM 0 0 1017.8 - 0.0 - - - - - - -
23/10:30am 24.4 NNE 2 4 1018.0 - 0.0 - - - - - - -
23/10:00am 22.6 CALM 0 0 1018.2 - 0.0 - - - - - - -
23/09:30am 20.6 N 2 3 1018.5 - 0.0 - - - - - - -
23/09:00am 18.8 E 2 4 1018.6 - 0.0 - - - - - - -
23/08:30am 16.5 CALM 0 0 1018.7 - 0.0 - - - - - - -
23/08:00am 13.7 NNE 0 0 1018.7 - 0.0 - - - - - - -
23/07:30am 11.4 CALM 0 0 1018.5 - 0.0 - - - - - - -
23/07:00am 10.0 N 1 2 1018.3 - 0.0 - - - - - - -
23/06:30am 9.4 CALM 0 0 1018.5 - 0.0 - - - - - - -
23/06:00am 9.5 CALM 0 2 1018.4 - 0.0 - - - - - - -
23/05:30am 9.5 CALM 0 0 1018.3 - 0.0 - - - - - - -
23/05:00am 9.8 CALM 0 0 1018.1 - 0.0 - - - - - - -
23/04:30am 10.1 CALM 0 0 1018.1 - 0.0 - - - - - - -
23/04:00am 10.2 CALM 0 0 1018.0 - 0.0 - - - - - - -
23/03:30am 10.5 CALM 0 0 1018.3 - 0.0 - - - - - - -
23/03:00am 10.5 CALM 0 0 1018.6 - 0.0 - - - - - - -
23/02:30am 11.0 CALM 0 0 1018.8 - 0.0 - - - - - - -
23/02:00am 11.3 CALM 0 0 1019.2 - 0.0 - - - - - - -
23/01:30am 11.4 CALM 0 0 1019.4 - 0.0 - - - - - - -
23/01:00am 11.6 CALM 0 0 1019.7 - 0.0 - - - - - - -
23/12:30am 12.1 CALM 0 0 1020.0 - 0.0 - - - - - - -
23/12:00am 12.1 E 0 0 1020.3 - 0.0 - - - - - - -
 
Date/Time
EDT
Temp

°C
Wind Pressure Rain
since 9am
mm
Weather Cloud Vis
km
Sea
Height
m
Swell
Dir
 
Speed
knots
Gust
knots
hPa Trend Height
m
Period
s
Dir
22/11:30pm 12.4 CALM 0 0 1020.4 - 0.0 - - - - - - -
22/11:00pm 12.9 CALM 0 0 1020.6 - 0.0 - - - - - - -
22/10:30pm 13.1 CALM 0 0 1020.8 - 0.0 - - - - - - -
22/10:00pm 13.7 CALM 0 0 1020.9 - 0.0 - - - - - - -
22/09:30pm 14.0 CALM 0 0 1020.9 - 0.0 - - - - - - -
22/09:00pm 14.7 CALM 0 0 1020.9 - 0.0 - - - - - - -
22/08:30pm 15.1 CALM 0 0 1020.6 - 0.0 - - - - - - -
22/08:00pm 16.8 CALM 0 1 1020.5 - 0.0 - - - - - - -
22/07:30pm 18.0 E 1 2 1020.4 - 0.0 - - - - - - -
22/07:00pm 19.1 E 2 4 1020.4 - 0.0 - - - - - - -
22/06:30pm 20.1 E 3 6 1020.4 - 0.0 - - - - - - -
22/06:00pm 20.7 E 4 8 1020.6 - 0.0 - - - - - - -
22/05:30pm 20.9 E 5 8 1020.8 - 0.0 - - - - - - -
22/05:00pm 20.7 E 7 12 1021.0 - 0.0 - - - - - - -
22/04:30pm 20.9 ESE 9 15 1021.2 - 0.0 - - - - - - -
22/04:00pm 20.9 E 8 13 1021.8 - 0.0 - - - - - - -
22/03:30pm 21.4 ESE 8 13 1022.2 - 0.0 - - - - - - -
22/03:00pm 21.1 E 7 12 1022.6 - 0.0 - - - - - - -
22/02:30pm 21.3 E 7 12 1023.0 - 0.0 - - - - - - -
22/02:00pm 20.9 ESE 7 13 1023.6 - 0.0 - - - - - - -
22/01:30pm 21.0 ESE 8 11 1024.0 - 0.0 - - - - - - -
22/01:00pm 20.4 E 6 11 1024.6 - 0.0 - - - - - - -
22/12:30pm 20.2 ESE 7 10 1025.1 - 0.0 - - - - - - -
22/12:00pm 20.1 E 6 10 1025.5 - 0.0 - - - - - - -
22/11:30am 20.5 NNE 6 9 1026.1 - 0.0 - - - - - - -
22/11:00am 19.3 N 5 10 1026.5 - 0.0 - - - - - - -
22/10:30am 20.4 NE 4 8 1026.9 - 0.0 - - - - - - -
22/10:00am 19.3 NE 4 6 1027.1 - 0.0 - - - - - - -
22/09:30am 17.4 NNW 2 4 1027.6 - 0.0 - - - - - - -
22/09:00am 16.8 CALM 0 1 1027.6 - 0.6 - - - - - - -
22/08:30am 15.5 CALM 0 1 1027.7 - 0.6 - - - - - - -
22/08:00am 13.6 CALM 0 0 1027.6 - 0.6 - - - - - - -
22/07:30am 12.7 CALM 0 0 1027.7 - 0.6 - - - - - - -
22/07:00am 12.2 CALM 0 0 1027.6 - 0.6 - - - - - - -
22/06:30am 11.6 CALM 0 0 1027.4 - 0.6 - - - - - - -
22/06:00am 11.6 CALM 0 0 1027.4 - 0.6 - - - - - - -
22/05:30am 12.0 SW 1 3 1027.4 - 0.6 - - - - - - -
22/05:00am 12.2 SW 1 2 1027.5 - 0.6 - - - - - - -
22/04:30am 12.2 CALM 0 0 1027.6 - 0.6 - - - - - - -
22/04:00am 12.4 CALM 0 2 1027.8 - 0.6 - - - - - - -
22/03:30am 12.5 CALM 0 2 1028.2 - 0.6 - - - - - - -
22/03:00am 12.8 CALM 0 2 1028.5 - 0.6 - - - - - - -
22/02:30am 13.0 CALM 0 0 1028.7 - 0.6 - - - - - - -
22/02:00am 13.2 CALM 0 1 1029.2 - 0.6 - - - - - - -
22/01:30am 13.3 SW 1 2 1029.8 - 0.6 - - - - - - -
22/01:00am 13.4 SW 2 3 1030.1 - 0.4 - - - - - - -
22/12:30am 13.4 NW 2 3 1030.7 - 0.4 - - - - - - -
22/12:00am 13.6 CALM 0 0 1030.8 - 0.4 - - - - - - -
 
Date/Time
EDT
Temp

°C
Wind Pressure Rain
since 9am
mm
Weather Cloud Vis
km
Sea
Height
m
Swell
Dir
 
Speed
knots
Gust
knots
hPa Trend Height
m
Period
s
Dir
21/11:30pm 13.7 CALM 0 2 1031.0 - 0.4 - - - - - - -
21/11:00pm 13.9 W 1 2 1031.2 - 0.4 - - - - - - -
21/10:30pm 14.3 CALM 0 0 1031.4 - 0.4 - - - - - - -
21/10:00pm 14.5 CALM 0 1 1031.4 - 0.2 - - - - - - -
21/09:30pm 15.6 E 3 5 1031.4 - 0.0 - - - - - - -
21/09:00pm 15.4 SE 4 9 1031.4 - 0.0 - - - - - - -
21/08:30pm 15.6 E 2 4 1031.0 - 0.0 - - - - - - -
21/08:00pm 15.4 E 1 3 1030.8 - 0.0 - - - - - - -
21/07:30pm 15.7 E 1 4 1030.6 - 0.0 - - - - - - -
21/07:00pm 15.9 CALM 0 0 1030.4 - 0.0 - - - - - - -
21/06:30pm 16.2 E 1 2 1030.5 - 0.0 - - - - - - -
21/06:00pm 16.4 E 3 4 1030.3 - 0.0 - - - - - - -
21/05:30pm 16.6 ESE 3 8 1030.2 - 0.0 - - - - - - -
21/05:00pm 16.8 E 4 9 1030.1 - 0.0 - - - - - - -
21/04:30pm 16.8 E 4 6 1030.2 - 0.0 - - - - - - -
21/04:00pm 16.8 ESE 5 9 1030.2 - 0.0 - - - - - - -
21/03:30pm 17.1 E 5 7 1030.4 - 0.0 - - - - - - -
21/03:00pm 17.3 E 4 7 1030.8 - 0.0 - - - - - - -
21/02:30pm 17.1 E 3 6 1031.1 - 0.0 - - - - - - -
21/02:00pm 17.0 ESE 4 8 1031.6 - 0.0 - - - - - - -
21/01:30pm 17.6 ENE 2 5 1031.8 - 0.0 - - - - - - -
21/01:00pm 17.4 E 4 7 1032.2 - 0.0 - - - - - - -
21/12:30pm 17.2 E 5 11 1032.5 - 0.0 - - - - - - -
21/12:00pm 17.8 ESE 2 4 1032.6 - 0.0 - - - - - - -
21/11:30am 17.1 ESE 4 6 1032.8 - 0.0 - - - - - - -
21/11:00am 17.1 E 2 5 1032.9 - 0.0 - - - - - - -
21/10:30am 16.4 ENE 1 3 1033.0 - 0.0 - - - - - - -
21/10:00am 16.0 CALM 0 0 1033.0 - 0.0 - - - - - - -
21/09:30am 15.5 NW 1 2 1032.9 - 0.0 - - - - - - -
21/09:00am 15.2 CALM 0 2 1032.6 - 1.8 - - - - - - -
21/08:30am 14.7 CALM 0 1 1032.3 - 1.8 - - - - - - -
21/08:00am 14.1 CALM 0 0 1032.0 - 1.8 - - - - - - -
21/07:30am 13.8 CALM 0 1 1031.8 - 1.8 - - - - - - -
21/07:00am 13.6 WNW 2 4 1031.5 - 1.8 - - - - - - -
21/06:30am 13.7 NW 1 4 1031.3 - 1.8 - - - - - - -
21/06:00am 13.7 W 2 3 1031.0 - 1.8 - - - - - - -
21/05:30am 13.6 WNW 1 2 1030.8 - 1.8 - - - - - - -
21/05:00am 13.6 SW 1 2 1030.7 - 1.8 - - - - - - -
21/04:30am 13.7 S 1 3 1030.9 - 1.8 - - - - - - -
21/04:00am 13.8 S 1 3 1030.8 - 1.8 - - - - - - -
21/03:30am 13.9 SW 1 3 1030.9 - 1.6 - - - - - - -
21/03:00am 13.9 CALM 0 3 1030.8 - 1.4 Recent precip. - - - - - -
21/02:30am 13.9 SW 1 2 1031.0 - 1.2 - - - - - - -
21/02:00am 14.1 W 1 3 1031.2 - 1.2 - - - - - - -
21/01:30am 14.1 NNW 1 4 1031.3 - 1.0 - - - - - - -
21/01:00am 14.2 NW 1 2 1031.5 - 1.0 - - - - - - -
21/12:30am 14.3 WSW 2 3 1031.7 - 1.0 - - - - - - -
21/12:00am 14.4 SW 2 4 1031.9 - 0.8 - - - - - - -
 
Date/Time
EDT
Temp

°C
Wind Pressure Rain
since 9am
mm
Weather Cloud Vis
km
Sea
Height
m
Swell
Dir
 
Speed
knots
Gust
knots
hPa Trend Height
m
Period
s
Dir
20/11:30pm 14.6 CALM 0 0 1031.9 - 0.8 - - - - - - -
20/11:00pm 14.6 W 1 2 1032.0 - 0.8 - - - - - - -
20/10:30pm 14.7 SSW 1 4 1032.1 - 0.8 - - - - - - -
20/10:00pm 14.8 CALM 0 0 1032.0 - 0.8 - - - - - - -

Other Formats:

Comma delimited format used in spreadsheet applications
http://www.bom.gov.au/fwo/IDN60701/IDN60701.95767.axf

JavaScript Object Notation format (JSON) in row-major order
http://www.bom.gov.au/fwo/IDN60701/IDN60701.95767.json